Time;durP1;ratioP1;P1;durP2;ratioP2;P2;SDS_P1;SDS_P2;PMS_P1;PMS_P2;Temp;Humidity;BMP_temperature;BMP_pressure;BME280_temperature;BME280_humidity;BME280_pressure;Samples;Min_cycle;Max_cycle;Signal;HPM_P1;HPM_P2
2022/10/19 00:01:17;;;;;;;11.37;9.13;;;;;;;13.17;100.00;96541.69;4792976;29;20749;-85
2022/10/19 00:03:53;;;;;;;13.38;9.20;;;;;;;13.12;100.00;96540.47;4795091;29;20217;-85
2022/10/19 00:06:26;;;;;;;10.57;9.43;;;;;;;13.05;100.00;96538.41;4796335;29;20691;-86
2022/10/19 00:08:59;;;;;;;11.93;9.03;;;;;;;13.08;100.00;96534.72;4807809;29;20229;-85
2022/10/19 00:11:33;;;;;;;11.70;9.43;;;;;;;13.14;100.00;96533.31;4799740;29;20271;-85
2022/10/19 00:14:13;;;;;;;14.00;9.70;;;;;;;13.07;100.00;96533.03;4815079;29;20304;-85
2022/10/19 00:17:01;;;;;;;10.20;9.03;;;;;;;13.04;100.00;96525.50;4807574;29;20206;-86
2022/10/19 00:19:31;;;;;;;11.77;10.13;;;;;;;12.95;100.00;96523.72;4806960;29;20214;-85
2022/10/19 00:28:29;;;;;;;11.20;10.07;;;;;;;12.90;100.00;96523.34;4849471;29;20189;-85
2022/10/19 00:31:30;;;;;;;12.47;10.40;;;;;;;12.90;100.00;96528.56;4840113;29;20205;-85
2022/10/19 00:34:14;;;;;;;11.83;9.43;;;;;;;12.88;100.00;96533.06;4861258;29;20214;-85
2022/10/19 00:37:00;;;;;;;14.10;10.90;;;;;;;12.83;100.00;96532.66;4856040;29;20201;-84
2022/10/19 00:42:43;;;;;;;14.87;11.13;;;;;;;12.66;100.00;96531.56;4849156;29;20263;-86
2022/10/19 00:45:21;;;;;;;15.37;10.77;;;;;;;12.58;100.00;96527.03;4863744;29;20197;-85
2022/10/19 00:47:55;;;;;;;12.50;10.50;;;;;;;12.52;100.00;96524.94;4852057;29;20200;-86
2022/10/19 00:50:39;;;;;;;11.70;10.07;;;;;;;12.43;100.00;96533.56;4844700;29;20252;-85
2022/10/19 00:53:26;;;;;;;;;;;;;;;;;;;;;
2022/10/19 00:56:06;;;;;;;13.33;9.93;;;;;;;12.38;100.00;96520.97;4861106;29;20195;-85
2022/10/19 00:58:37;;;;;;;14.80;9.60;;;;;;;12.33;100.00;96530.13;4864020;29;20241;-86
2022/10/19 01:01:10;;;;;;;13.93;10.03;;;;;;;12.27;100.00;96534.09;4852932;29;20196;-85
2022/10/19 01:03:58;;;;;;;9.53;8.63;;;;;;;12.20;100.00;96527.78;4848663;29;20199;-85
2022/10/19 01:06:34;;;;;;;10.93;9.27;;;;;;;12.17;100.00;96528.88;4863623;29;20209;-85
2022/10/19 01:09:02;;;;;;;10.77;9.63;;;;;;;12.13;100.00;96526.69;4869319;29;20337;-85
2022/10/19 01:12:11;;;;;;;11.83;9.80;;;;;;;12.18;100.00;96514.06;4853713;29;20294;-86
2022/10/19 01:15:05;;;;;;;12.93;10.20;;;;;;;12.23;100.00;96511.06;4864974;29;20209;-85
2022/10/19 01:18:04;;;;;;;12.87;10.33;;;;;;;12.17;100.00;96497.63;4856065;29;20207;-84
2022/10/19 01:21:10;;;;;;;13.00;11.03;;;;;;;12.35;100.00;96499.56;4858588;29;20686;-85
2022/10/19 01:24:16;;;;;;;16.23;10.80;;;;;;;12.41;100.00;96505.06;4878478;29;20263;-85
2022/10/19 01:27:23;;;;;;;14.27;11.43;;;;;;;12.48;100.00;96505.34;4871561;29;20200;-85
2022/10/19 01:30:18;;;;;;;16.77;11.63;;;;;;;12.37;100.00;96508.09;4871418;29;20227;-85
2022/10/19 01:33:32;;;;;;;13.13;10.83;;;;;;;12.36;100.00;96501.22;4866196;29;20659;-85
2022/10/19 01:36:30;;;;;;;15.00;10.83;;;;;;;12.28;100.00;96493.25;4843686;29;20208;-85
2022/10/19 01:39:06;;;;;;;15.70;10.63;;;;;;;12.17;100.00;96497.63;4826166;29;20235;-84
2022/10/19 01:41:55;;;;;;;13.30;11.67;;;;;;;12.07;100.00;96496.78;4845563;29;20209;-84
2022/10/19 01:44:40;;;;;;;12.07;10.50;;;;;;;12.12;100.00;96488.59;4824792;29;20254;-84
2022/10/19 01:47:36;;;;;;;14.23;12.07;;;;;;;12.23;100.00;96495.44;4828636;29;20197;-85
2022/10/19 01:51:18;;;;;;;15.03;11.30;;;;;;;12.20;100.00;96483.53;4848023;29;20239;-85
2022/10/19 01:53:52;;;;;;;12.70;10.67;;;;;;;12.27;100.00;96483.78;4753936;29;20260;-85
2022/10/19 01:56:41;;;;;;;12.17;9.63;;;;;;;12.18;100.00;96483.63;4807846;29;20213;-85
2022/10/19 01:59:11;;;;;;;11.87;10.13;;;;;;;12.14;100.00;96484.88;4787165;29;20226;-84
2022/10/19 02:07:40;;;;;;;11.23;9.70;;;;;;;12.02;100.00;96480.75;4759907;30;20212;-84
2022/10/19 02:10:12;;;;;;;12.00;10.60;;;;;;;11.87;100.00;96485.50;4755839;30;20232;-84
2022/10/19 02:12:41;;;;;;;16.83;13.10;;;;;;;11.85;100.00;96471.81;4752414;29;20213;-84
2022/10/19 02:15:20;;;;;;;20.70;16.00;;;;;;;12.00;100.00;96471.41;4760205;29;20214;-87
2022/10/19 02:17:58;;;;;;;32.57;14.90;;;;;;;12.39;100.00;96473.13;4769103;30;20277;-86
2022/10/19 02:20:32;;;;;;;84.80;13.83;;;;;;;12.56;100.00;96465.59;4786587;29;20294;-84
2022/10/19 02:23:29;;;;;;;32.40;10.87;;;;;;;12.63;100.00;96470.13;4775511;29;20210;-85
2022/10/19 02:26:04;;;;;;;66.63;11.37;;;;;;;12.70;100.00;96481.63;4830683;29;20209;-85
2022/10/19 02:28:30;;;;;;;49.17;10.17;;;;;;;12.79;100.00;96485.19;4822606;29;20308;-84
2022/10/19 02:30:56;;;;;;;46.13;10.23;;;;;;;12.93;100.00;96479.56;4810843;29;20313;-85
2022/10/19 02:33:24;;;;;;;63.63;10.83;;;;;;;13.02;100.00;96481.31;4816138;29;20806;-85
2022/10/19 02:35:50;;;;;;;37.63;10.67;;;;;;;13.07;100.00;96475.66;4822359;29;20203;-86
2022/10/19 02:38:21;;;;;;;37.23;9.97;;;;;;;13.18;100.00;96479.94;4822578;29;20671;-85
2022/10/19 02:41:03;;;;;;;23.70;8.90;;;;;;;13.21;100.00;96483.09;4839250;29;20671;-85
2022/10/19 02:43:43;;;;;;;21.37;10.00;;;;;;;13.27;100.00;96476.50;4834534;29;20193;-86
2022/10/19 02:46:48;;;;;;;35.60;11.83;;;;;;;13.26;100.00;96469.66;4807797;29;20296;-85
2022/10/19 02:49:25;;;;;;;58.77;11.87;;;;;;;13.25;100.00;96467.97;4859100;29;20258;-84
2022/10/19 02:52:16;;;;;;;53.67;13.23;;;;;;;13.26;100.00;96465.25;4841614;29;20232;-85
2022/10/19 02:55:04;;;;;;;80.57;13.90;;;;;;;13.27;100.00;96463.47;4856825;29;20240;-85
2022/10/19 02:57:31;;;;;;;73.73;14.17;;;;;;;13.30;100.00;96455.34;4800687;29;20209;-85
2022/10/19 03:00:15;;;;;;;28.77;12.30;;;;;;;13.36;100.00;96454.78;4817065;29;20663;-85
2022/10/19 03:02:40;;;;;;;44.53;12.87;;;;;;;13.36;100.00;96453.97;4813358;29;20240;-86
2022/10/19 03:05:12;;;;;;;46.83;14.43;;;;;;;13.36;100.00;96454.78;4816433;29;20237;-86
2022/10/19 03:07:40;;;;;;;47.93;14.53;;;;;;;13.40;100.00;96444.88;4819371;29;20386;-86
2022/10/19 03:10:12;;;;;;;54.47;13.00;;;;;;;13.45;100.00;96453.09;4816457;29;20304;-86
2022/10/19 03:12:40;;;;;;;50.50;14.70;;;;;;;13.49;100.00;96444.00;4815561;29;20273;-85
2022/10/19 03:15:06;;;;;;;40.43;12.70;;;;;;;13.46;100.00;96442.53;4799773;29;20213;-86
2022/10/19 03:17:42;;;;;;;54.10;15.17;;;;;;;13.31;100.00;96442.16;4832576;29;20574;-87
2022/10/19 03:20:15;;;;;;;32.50;12.83;;;;;;;13.42;100.00;96433.31;4822009;29;20236;-85
2022/10/19 03:22:50;;;;;;;36.17;13.37;;;;;;;13.35;100.00;96434.06;4811887;29;20201;-87
2022/10/19 03:25:15;;;;;;;39.50;13.57;;;;;;;13.40;100.00;96434.44;4818434;29;20217;-84
2022/10/19 03:27:43;;;;;;;27.47;12.53;;;;;;;13.41;100.00;96423.03;4817640;29;20338;-86
2022/10/19 03:30:09;;;;;;;31.67;12.90;;;;;;;13.46;100.00;96431.25;4828102;29;20217;-86
2022/10/19 03:32:37;;;;;;;24.87;12.00;;;;;;;13.56;100.00;96425.03;4830230;29;20292;-84
2022/10/19 03:35:02;;;;;;;26.00;12.37;;;;;;;13.58;100.00;96432.72;4833221;29;20228;-84
2022/10/19 03:37:33;;;;;;;26.83;13.07;;;;;;;13.50;100.00;96430.81;4813142;29;20204;-85
2022/10/19 03:40:14;;;;;;;27.47;13.00;;;;;;;13.52;100.00;96435.91;4841232;29;20292;-86
2022/10/19 03:42:43;;;;;;;20.53;11.43;;;;;;;13.62;100.00;96441.09;4831678;29;20196;-86
2022/10/19 03:45:14;;;;;;;24.30;12.97;;;;;;;13.45;100.00;96443.50;4831922;29;20654;-86
2022/10/19 03:47:43;;;;;;;23.13;13.77;;;;;;;13.59;100.00;96439.56;4829832;29;20327;-86
2022/10/19 03:50:13;;;;;;;18.67;12.17;;;;;;;13.64;100.00;96437.34;4840793;29;20242;-85
2022/10/19 03:52:41;;;;;;;22.47;13.07;;;;;;;13.67;100.00;96433.63;4845506;29;20224;-86
2022/10/19 03:55:07;;;;;;;21.83;13.83;;;;;;;13.60;100.00;96430.78;4832862;29;20227;-84
2022/10/19 03:57:32;;;;;;;21.63;13.37;;;;;;;13.64;100.00;96436.53;4828693;29;20197;-83
2022/10/19 04:00:03;;;;;;;23.80;14.17;;;;;;;13.63;100.00;96434.91;4843999;29;20980;-85
2022/10/19 04:03:24;;;;;;;27.50;15.13;;;;;;;13.70;100.00;96431.56;4846109;29;20201;-85
2022/10/19 04:06:54;;;;;;;;;;;;;;;;;;;;;
2022/10/19 04:09:51;;;;;;;38.50;14.20;;;;;;;13.66;100.00;96430.19;4830881;29;20217;-85
2022/10/19 04:13:26;;;;;;;39.17;13.43;;;;;;;13.71;100.00;96427.16;4835554;29;20582;-85
2022/10/19 04:16:44;;;;;;;;;;;;;;;;;;;;;
2022/10/19 04:19:37;;;;;;;28.80;12.00;;;;;;;13.73;100.00;96418.22;4799400;29;20304;-85
2022/10/19 04:22:02;;;;;;;44.07;13.90;;;;;;;13.66;100.00;96427.59;4800414;29;20218;-81
2022/10/19 04:24:28;;;;;;;38.67;14.13;;;;;;;13.69;100.00;96424.69;4785896;29;20230;-82
2022/10/19 04:26:54;;;;;;;32.07;13.40;;;;;;;13.74;100.00;96427.69;4772378;29;20198;-86
2022/10/19 04:29:21;;;;;;;36.50;15.33;;;;;;;13.72;100.00;96424.41;4770436;30;20226;-86
2022/10/19 04:31:48;;;;;;;32.37;15.13;;;;;;;13.72;100.00;96431.41;4800793;29;20233;-86
2022/10/19 04:34:13;;;;;;;42.27;15.97;;;;;;;13.73;100.00;96430.44;4786564;29;20230;-85
2022/10/19 04:36:39;;;;;;;36.40;15.63;;;;;;;13.64;100.00;96441.75;4788515;29;20597;-85
2022/10/19 04:39:05;;;;;;;35.87;15.90;;;;;;;13.66;100.00;96435.41;4802328;29;20778;-86
2022/10/19 04:41:30;;;;;;;33.40;15.97;;;;;;;13.69;100.00;96431.69;4789048;29;20206;-86
2022/10/19 04:43:57;;;;;;;34.50;16.50;;;;;;;13.74;100.00;96427.69;4803231;29;20260;-86
2022/10/19 04:46:23;;;;;;;28.30;14.47;;;;;;;13.75;100.00;96424.09;4776055;30;20238;-86
2022/10/19 04:48:49;;;;;;;25.17;13.57;;;;;;;13.75;100.00;96426.72;4770568;29;20223;-85
2022/10/19 04:51:15;;;;;;;25.73;13.93;;;;;;;13.73;100.00;96428.66;4802169;29;20215;-85
2022/10/19 04:53:41;;;;;;;20.93;13.77;;;;;;;13.79;100.00;96422.88;4793272;29;20226;-85
2022/10/19 04:56:08;;;;;;;24.90;14.77;;;;;;;13.81;100.00;96422.72;4847230;29;20190;-85
2022/10/19 04:58:34;;;;;;;25.53;14.80;;;;;;;13.87;100.00;96420.34;4827487;29;20305;-86
2022/10/19 05:01:06;;;;;;;22.27;14.17;;;;;;;13.84;100.00;96418.00;4848002;29;20285;-86
2022/10/19 05:03:31;;;;;;;22.47;14.57;;;;;;;13.77;100.00;96419.56;4833660;29;20218;-86
2022/10/19 05:05:58;;;;;;;22.47;13.87;;;;;;;13.86;100.00;96420.47;4850972;29;20197;-85
2022/10/19 05:08:23;;;;;;;22.53;14.53;;;;;;;13.79;100.00;96416.81;4841069;29;20217;-86
2022/10/19 05:10:48;;;;;;;23.63;14.30;;;;;;;13.82;100.00;96425.19;4836047;29;20258;-86
2022/10/19 05:13:13;;;;;;;21.63;14.00;;;;;;;13.74;100.00;96417.25;4852385;29;20278;-85
2022/10/19 05:15:39;;;;;;;25.60;17.13;;;;;;;13.55;100.00;96417.34;4851245;29;20197;-86
2022/10/19 05:18:04;;;;;;;22.77;14.57;;;;;;;13.46;100.00;96419.03;4836345;29;20181;-86
2022/10/19 05:20:29;;;;;;;25.20;15.50;;;;;;;13.48;100.00;96416.28;4848724;29;20740;-85
2022/10/19 05:22:55;;;;;;;22.77;14.17;;;;;;;13.62;100.00;96417.59;4852343;29;20221;-86
2022/10/19 05:25:20;;;;;;;25.37;15.20;;;;;;;13.45;100.00;96416.56;4844998;29;20568;-85
2022/10/19 05:27:49;;;;;;;22.37;15.77;;;;;;;13.48;100.00;96418.88;4846682;29;20586;-85
2022/10/19 05:30:15;;;;;;;23.17;14.67;;;;;;;13.43;100.00;96414.13;4834263;29;20745;-85
2022/10/19 05:32:40;;;;;;;20.70;14.13;;;;;;;13.54;100.00;96411.31;4839678;29;20289;-86
2022/10/19 05:35:05;;;;;;;21.03;13.87;;;;;;;13.61;100.00;96411.56;4838716;29;20232;-86
2022/10/19 05:37:31;;;;;;;20.17;13.93;;;;;;;13.54;100.00;96402.66;4849381;29;20221;-86
2022/10/19 05:39:56;;;;;;;21.90;14.80;;;;;;;13.44;100.00;96396.69;4831352;29;20227;-86
2022/10/19 05:42:21;;;;;;;24.50;16.07;;;;;;;13.39;100.00;96393.66;4851644;29;20197;-86
2022/10/19 05:44:47;;;;;;;21.57;14.33;;;;;;;13.46;100.00;96405.16;4849033;29;20269;-86
2022/10/19 05:47:12;;;;;;;22.73;15.50;;;;;;;13.48;100.00;96398.00;4849953;29;20193;-86
2022/10/19 05:49:37;;;;;;;21.77;16.07;;;;;;;13.51;100.00;96401.13;4831303;29;20217;-86
2022/10/19 05:52:03;;;;;;;21.27;15.37;;;;;;;13.46;100.00;96399.94;4843660;29;20213;-86
2022/10/19 05:54:28;;;;;;;23.83;15.67;;;;;;;13.58;100.00;96401.38;4847515;29;20648;-86
2022/10/19 05:56:53;;;;;;;23.57;15.77;;;;;;;13.62;100.00;96402.75;4852584;29;20725;-86
2022/10/19 05:59:19;;;;;;;19.23;14.10;;;;;;;13.69;100.00;96405.59;4847122;29;20532;-84
2022/10/19 06:01:46;;;;;;;23.02;16.33;;;;;;;13.67;100.00;96410.13;4849122;29;20185;-86
2022/10/19 06:04:13;;;;;;;20.57;14.33;;;;;;;13.80;100.00;96408.84;4853091;29;20333;-85
2022/10/19 06:06:39;;;;;;;22.73;16.38;;;;;;;13.79;100.00;96415.03;4846022;29;20200;-84
2022/10/19 06:09:05;;;;;;;20.55;14.63;;;;;;;13.76;100.00;96417.09;4837946;29;20209;-84
2022/10/19 06:11:33;;;;;;;20.40;15.10;;;;;;;13.77;100.00;96413.50;4846012;29;20563;-86
2022/10/19 06:14:01;;;;;;;19.42;14.50;;;;;;;13.80;100.00;96414.06;4838292;29;20252;-85
2022/10/19 06:16:28;;;;;;;23.17;15.98;;;;;;;13.77;100.00;96418.72;4853889;29;20189;-85
2022/10/19 06:21:29;;;;;;;20.50;16.20;;;;;;;13.80;100.00;96421.91;1102949;27;20320;-83
2022/10/19 06:23:56;;;;;;;22.33;16.13;;;;;;;13.92;100.00;96419.88;4853670;29;20267;-86
2022/10/19 06:26:27;;;;;;;20.70;15.93;;;;;;;14.03;100.00;96426.69;4846833;29;20189;-86
2022/10/19 06:28:59;;;;;;;20.77;15.40;;;;;;;14.04;100.00;96418.69;4847055;29;20205;-86
2022/10/19 06:31:28;;;;;;;20.07;14.87;;;;;;;14.03;100.00;96421.47;4830807;29;20205;-86
2022/10/19 06:33:53;;;;;;;19.03;15.13;;;;;;;14.07;100.00;96420.22;4830081;29;20213;-86
2022/10/19 06:36:21;;;;;;;19.25;15.38;;;;;;;14.16;100.00;96430.59;4834189;29;20277;-86
2022/10/19 06:38:47;;;;;;;19.30;14.73;;;;;;;14.16;100.00;96427.97;4848946;29;20214;-86
2022/10/19 06:41:12;;;;;;;17.92;14.43;;;;;;;13.95;100.00;96429.22;4841100;29;20204;-84
2022/10/19 06:43:38;;;;;;;23.73;14.13;;;;;;;14.02;100.00;96430.28;4832979;29;20188;-84
2022/10/19 06:46:11;;;;;;;21.50;14.43;;;;;;;14.06;100.00;96435.06;4830704;29;20198;-85
2022/10/19 06:48:37;;;;;;;19.07;14.40;;;;;;;14.03;100.00;96443.19;4854617;29;20650;-85
2022/10/19 06:51:04;;;;;;;22.57;14.77;;;;;;;14.01;100.00;96434.69;4829920;29;20197;-85
2022/10/19 06:53:30;;;;;;;21.40;15.23;;;;;;;14.02;100.00;96432.88;4856874;29;20197;-85
2022/10/19 06:56:00;;;;;;;23.23;15.68;;;;;;;14.00;100.00;96440.06;4849296;29;20314;-85
2022/10/19 06:58:37;;;;;;;20.67;16.23;;;;;;;14.02;100.00;96438.94;4854924;29;20192;-85
2022/10/19 07:01:04;;;;;;;18.93;15.20;;;;;;;14.11;100.00;96437.22;4832614;29;20643;-85
2022/10/19 07:03:29;;;;;;;19.93;15.13;;;;;;;14.17;100.00;96441.88;4836047;29;20197;-85
2022/10/19 07:05:56;;;;;;;21.90;16.25;;;;;;;14.12;100.00;96436.25;4833661;29;20199;-85
2022/10/19 07:08:22;;;;;;;20.45;15.48;;;;;;;13.98;100.00;96437.59;4855715;29;20189;-85
2022/10/19 07:10:52;;;;;;;21.38;16.42;;;;;;;14.08;100.00;96445.38;4833949;29;20484;-85
2022/10/19 07:13:18;;;;;;;22.50;16.90;;;;;;;13.90;100.00;96442.72;4836791;29;20189;-85
2022/10/19 07:15:43;;;;;;;22.25;16.55;;;;;;;14.01;100.00;96439.91;4834822;29;20200;-85
2022/10/19 07:18:09;;;;;;;23.20;16.65;;;;;;;14.05;100.00;96437.84;4830572;29;20220;-85
2022/10/19 07:20:35;;;;;;;26.63;17.40;;;;;;;14.01;100.00;96436.47;4830267;29;20197;-84
2022/10/19 07:23:01;;;;;;;20.17;16.48;;;;;;;14.01;100.00;96434.69;4837698;29;20210;-84
2022/10/19 07:25:27;;;;;;;20.58;16.17;;;;;;;14.11;100.00;96437.22;4840407;29;20197;-84
2022/10/19 07:27:52;;;;;;;20.63;15.93;;;;;;;14.05;100.00;96436.03;4836113;29;20205;-84
2022/10/19 07:30:19;;;;;;;22.67;16.40;;;;;;;14.18;100.00;96439.09;4832190;29;20214;-85
2022/10/19 07:32:44;;;;;;;21.63;16.77;;;;;;;14.21;100.00;96443.19;4841083;29;20194;-84
2022/10/19 07:35:10;;;;;;;22.50;17.17;;;;;;;14.21;100.00;96445.00;4848023;29;20742;-85
2022/10/19 07:37:35;;;;;;;25.90;18.00;;;;;;;14.14;100.00;96443.00;4851140;29;20840;-85
2022/10/19 07:40:01;;;;;;;24.25;17.38;;;;;;;14.13;100.00;96443.97;4845719;29;20379;-85
2022/10/19 07:42:29;;;;;;;23.80;17.97;;;;;;;14.31;100.00;96441.38;4833066;29;20689;-85
2022/10/19 07:44:54;;;;;;;23.70;18.90;;;;;;;14.35;100.00;96444.50;4837401;29;20256;-86
2022/10/19 07:47:20;;;;;;;23.92;17.67;;;;;;;14.41;100.00;96442.09;4840594;29;20287;-87
2022/10/19 07:49:45;;;;;;;24.52;18.35;;;;;;;14.50;100.00;96434.38;4842185;29;20221;-85
2022/10/19 07:52:10;;;;;;;22.30;17.33;;;;;;;14.60;100.00;96429.88;4859304;29;20190;-85
2022/10/19 07:54:36;;;;;;;23.30;17.75;;;;;;;14.65;100.00;96427.63;4856006;29;20224;-87
2022/10/19 07:57:01;;;;;;;23.27;17.13;;;;;;;14.82;100.00;96428.56;4863096;29;20189;-85
2022/10/19 07:59:27;;;;;;;23.70;17.40;;;;;;;14.69;100.00;96439.44;4836556;29;20623;-86
2022/10/19 08:01:53;;;;;;;21.65;17.38;;;;;;;14.83;100.00;96436.25;4837723;29;20178;-85
2022/10/19 08:04:18;;;;;;;20.60;15.77;;;;;;;14.85;100.00;96442.19;4857030;29;20378;-85
2022/10/19 08:06:44;;;;;;;19.97;14.90;;;;;;;14.89;100.00;96440.06;4847626;29;20216;-85
2022/10/19 08:09:09;;;;;;;23.10;16.48;;;;;;;14.87;100.00;96437.63;4840376;29;20357;-84
2022/10/19 08:11:35;;;;;;;23.92;17.23;;;;;;;14.81;100.00;96438.22;4840651;29;20197;-85
2022/10/19 08:14:03;;;;;;;19.75;16.08;;;;;;;14.79;100.00;96447.19;4833809;29;20228;-85
2022/10/19 08:16:31;;;;;;;24.20;18.27;;;;;;;14.77;100.00;96442.13;4832845;29;20212;-85
2022/10/19 08:19:08;;;;;;;23.33;18.40;;;;;;;14.64;100.00;96444.28;4831969;29;20218;-85
2022/10/19 08:21:35;;;;;;;27.17;18.70;;;;;;;14.70;100.00;96441.06;4819544;29;20202;-84
2022/10/19 08:24:00;;;;;;;26.05;19.38;;;;;;;14.76;100.00;96443.09;4848229;29;20198;-85
2022/10/19 08:26:31;;;;;;;26.58;19.00;;;;;;;14.76;100.00;96447.50;4828229;29;20205;-84
2022/10/19 08:29:22;;;;;;;30.02;19.58;;;;;;;14.73;100.00;96436.34;4846984;29;20307;-85
2022/10/19 08:31:48;;;;;;;26.47;18.10;;;;;;;14.76;100.00;96439.66;4836950;29;20216;-84
2022/10/19 08:34:14;;;;;;;25.48;17.35;;;;;;;14.78;100.00;96443.75;4848575;29;20217;-85
2022/10/19 08:36:40;;;;;;;27.87;18.13;;;;;;;14.63;100.00;96445.25;4828596;29;20202;-85
2022/10/19 08:39:07;;;;;;;27.10;17.92;;;;;;;14.72;100.00;96436.50;4836074;29;20221;-85
2022/10/19 08:42:03;;;;;;;26.23;17.27;;;;;;;14.70;100.00;96435.84;4844719;29;20185;-85
2022/10/19 08:44:53;;;;;;;30.60;17.93;;;;;;;14.82;100.00;96439.84;4821202;29;20640;-85
2022/10/19 08:47:32;;;;;;;27.88;18.65;;;;;;;14.65;100.00;96443.31;4840765;29;20193;-84
2022/10/19 08:49:58;;;;;;;25.23;17.02;;;;;;;14.63;100.00;96437.41;4851922;29;20223;-83
2022/10/19 08:52:27;;;;;;;27.80;17.27;;;;;;;14.59;100.00;96428.25;4826211;29;20563;-84
2022/10/19 08:55:10;;;;;;;23.40;15.13;;;;;;;14.72;100.00;96429.47;4843591;29;20209;-85
2022/10/19 08:57:43;;;;;;;27.27;17.42;;;;;;;14.71;100.00;96427.03;4837983;29;20665;-85
2022/10/19 09:00:17;;;;;;;26.92;17.13;;;;;;;14.79;100.00;96424.47;4829605;29;20213;-85
2022/10/19 09:03:00;;;;;;;31.23;19.85;;;;;;;14.86;100.00;96428.13;4832430;29;20193;-83
2022/10/19 09:05:52;;;;;;;29.80;19.05;;;;;;;14.88;100.00;96433.19;4824470;29;20221;-85
2022/10/19 09:08:18;;;;;;;29.50;18.25;;;;;;;15.00;100.00;96421.50;4833755;29;20250;-84
2022/10/19 09:10:48;;;;;;;28.25;19.60;;;;;;;14.86;100.00;96417.66;4828088;29;20197;-84
2022/10/19 09:13:13;;;;;;;30.88;20.80;;;;;;;14.95;100.00;96419.38;4833067;29;20193;-84
2022/10/19 09:15:43;;;;;;;24.25;18.13;;;;;;;15.13;100.00;96421.94;4849772;29;20219;-85
2022/10/19 09:18:21;;;;;;;26.02;18.30;;;;;;;15.13;100.00;96419.31;4831310;29;20194;-84
2022/10/19 09:20:52;;;;;;;26.27;18.65;;;;;;;15.27;100.00;96415.28;4826829;29;20213;-84
2022/10/19 09:23:25;;;;;;;27.50;17.70;;;;;;;15.34;98.33;96418.94;4835332;29;20206;-84
2022/10/19 09:25:51;;;;;;;24.02;17.23;;;;;;;15.31;97.30;96416.63;4827770;29;20194;-84
2022/10/19 09:28:40;;;;;;;20.67;15.63;;;;;;;15.23;96.74;96421.81;4834001;29;20201;-85
2022/10/19 09:31:09;;;;;;;18.63;14.93;;;;;;;15.14;97.65;96420.94;4833852;29;20774;-85
2022/10/19 09:33:37;;;;;;;18.70;15.30;;;;;;;15.08;97.99;96413.72;4842287;29;20246;-85
2022/10/19 09:36:04;;;;;;;19.70;15.40;;;;;;;15.10;98.62;96422.22;4829925;29;20202;-84
2022/10/19 09:38:30;;;;;;;21.88;16.17;;;;;;;15.04;98.58;96411.56;4846760;29;20193;-84
2022/10/19 09:41:32;;;;;;;20.77;14.40;;;;;;;15.02;99.48;96420.41;4832503;29;20585;-85
2022/10/19 09:43:58;;;;;;;20.05;15.23;;;;;;;15.06;98.04;96420.91;4839610;29;20207;-84
2022/10/19 09:46:28;;;;;;;18.98;14.13;;;;;;;15.09;97.87;96419.75;4826754;29;20196;-84
2022/10/19 09:48:54;;;;;;;17.08;14.75;;;;;;;14.96;98.14;96421.00;4830845;29;20698;-86
2022/10/19 09:51:20;;;;;;;18.83;14.48;;;;;;;15.06;98.35;96423.50;4830545;29;20209;-85
2022/10/19 09:53:45;;;;;;;18.52;15.60;;;;;;;14.99;99.45;96415.44;4823721;29;20723;-86
2022/10/19 09:56:18;;;;;;;20.58;15.07;;;;;;;15.16;98.57;96423.41;4839881;29;20200;-85
2022/10/19 09:58:57;;;;;;;18.65;14.70;;;;;;;15.08;99.05;96423.34;4851266;29;20212;-85
2022/10/19 10:01:37;;;;;;;20.80;15.18;;;;;;;14.99;98.66;96418.06;4827285;29;20203;-84
2022/10/19 10:04:06;;;;;;;20.38;15.43;;;;;;;15.16;98.82;96410.31;4832665;29;20189;-84
2022/10/19 10:06:33;;;;;;;17.40;14.68;;;;;;;15.33;97.81;96406.81;4850519;29;20225;-84
2022/10/19 10:08:58;;;;;;;21.83;14.43;;;;;;;15.37;97.20;96409.94;4824444;29;20212;-85
2022/10/19 10:11:29;;;;;;;19.33;15.50;;;;;;;15.47;96.47;96403.63;4830326;29;20212;-85
2022/10/19 10:13:55;;;;;;;19.70;14.48;;;;;;;15.62;95.02;96408.28;4833798;29;20208;-85
2022/10/19 10:16:23;;;;;;;19.67;13.35;;;;;;;15.78;94.06;96410.97;4826046;29;20201;-84
2022/10/19 10:18:57;;;;;;;14.45;12.80;;;;;;;15.92;92.50;96410.38;4815359;29;20229;-84
2022/10/19 10:21:27;;;;;;;13.77;12.27;;;;;;;16.00;91.85;96407.78;4836975;29;20199;-84
2022/10/19 10:24:09;;;;;;;14.05;11.05;;;;;;;16.47;89.54;96407.19;4831338;29;20630;-84
2022/10/19 10:26:40;;;;;;;13.00;10.85;;;;;;;16.45;86.78;96405.72;4847629;29;20207;-84
2022/10/19 10:29:20;;;;;;;13.32;10.63;;;;;;;16.60;86.86;96397.00;4832636;29;20273;-85
2022/10/19 10:31:53;;;;;;;12.45;11.10;;;;;;;16.63;86.93;96401.94;4847866;29;20197;-85
2022/10/19 10:34:33;;;;;;;12.68;11.25;;;;;;;16.51;87.74;96399.78;4837166;29;20265;-85
2022/10/19 10:36:59;;;;;;;14.10;11.75;;;;;;;16.42;87.05;96397.16;4831789;29;20201;-84
2022/10/19 10:39:27;;;;;;;13.27;11.88;;;;;;;16.37;87.43;96390.78;4833662;29;20221;-85
2022/10/19 10:41:52;;;;;;;13.10;11.70;;;;;;;16.32;86.74;96390.44;4822595;29;20198;-85
2022/10/19 10:44:25;;;;;;;13.88;12.13;;;;;;;16.29;86.21;96385.53;4826971;29;20190;-85
2022/10/19 10:47:00;;;;;;;15.10;11.95;;;;;;;16.17;87.00;96386.81;4844477;29;20201;-85
2022/10/19 10:49:35;;;;;;;14.30;11.20;;;;;;;16.07;87.39;96384.34;4842757;29;20219;-86
2022/10/19 10:52:15;;;;;;;11.70;10.50;;;;;;;16.12;86.76;96384.69;4831496;29;20197;-85
2022/10/19 10:54:56;;;;;;;10.77;8.63;;;;;;;16.16;87.84;96380.75;4818425;29;20210;-85
2022/10/19 10:57:23;;;;;;;11.07;9.02;;;;;;;16.21;87.44;96375.88;4832169;29;20334;-85
2022/10/19 11:00:04;;;;;;;9.43;8.40;;;;;;;16.30;86.66;96368.84;4829248;29;20209;-85
2022/10/19 11:02:38;;;;;;;9.95;8.95;;;;;;;16.30;86.78;96368.84;4845484;29;20185;-85
2022/10/19 11:05:27;;;;;;;12.32;9.43;;;;;;;16.14;85.08;96373.06;4845459;29;20190;-84
2022/10/19 11:08:02;;;;;;;10.85;9.55;;;;;;;15.94;86.82;96369.09;4843126;29;20249;-84
2022/10/19 11:10:32;;;;;;;10.98;9.88;;;;;;;15.85;87.39;96375.31;4808777;29;20224;-83
2022/10/19 11:13:04;;;;;;;11.02;9.88;;;;;;;15.79;87.34;96363.66;4818179;29;20225;-84
2022/10/19 11:15:34;;;;;;;10.73;9.63;;;;;;;15.79;88.29;96368.91;4813642;29;20879;-84
2022/10/19 11:18:10;;;;;;;11.25;10.05;;;;;;;15.72;88.99;96361.84;4842572;29;20200;-84
2022/10/19 11:20:40;;;;;;;12.35;9.15;;;;;;;15.58;89.69;96352.78;4841898;29;20280;-85
2022/10/19 11:23:25;;;;;;;11.35;9.98;;;;;;;15.45;90.54;96358.44;4840867;29;20237;-84
2022/10/19 11:26:25;;;;;;;10.25;9.15;;;;;;;15.26;91.02;96358.69;4838860;29;20244;-84
2022/10/19 11:29:31;;;;;;;11.25;9.20;;;;;;;15.42;90.65;96356.16;4837619;29;20205;-85
2022/10/19 11:31:57;;;;;;;11.15;9.63;;;;;;;15.51;91.12;96346.53;4839520;29;20213;-85
2022/10/19 11:34:35;;;;;;;10.68;9.52;;;;;;;15.51;91.00;96341.31;4840928;29;20261;-85
2022/10/19 11:37:02;;;;;;;11.48;9.85;;;;;;;15.59;90.48;96338.72;4839822;29;20294;-84
2022/10/19 11:39:51;;;;;;;13.90;9.43;;;;;;;15.54;89.93;96340.97;4822297;29;20226;-84
2022/10/19 11:42:40;;;;;;;12.63;9.60;;;;;;;15.48;90.71;96331.16;4825332;29;20261;-85
2022/10/19 11:45:23;;;;;;;11.35;9.13;;;;;;;15.68;89.24;96329.13;4822027;29;20190;-84
2022/10/19 11:48:12;;;;;;;11.32;9.18;;;;;;;15.67;88.81;96330.09;4840241;29;20218;-84
2022/10/19 11:50:52;;;;;;;10.35;8.93;;;;;;;15.71;87.70;96320.94;4829827;29;20194;-83
2022/10/19 11:53:17;;;;;;;13.15;9.27;;;;;;;15.64;88.41;96326.00;4847372;29;20194;-84
2022/10/19 11:56:03;;;;;;;10.32;8.60;;;;;;;15.73;88.70;96319.00;4827693;29;20635;-84
2022/10/19 11:59:08;;;;;;;9.77;8.10;;;;;;;15.84;87.52;96311.63;4844424;29;20212;-84
2022/10/19 12:01:53;;;;;;;10.23;8.95;;;;;;;15.75;87.92;96320.47;4826073;29;20344;-84
2022/10/19 12:04:21;;;;;;;8.77;7.80;;;;;;;15.90;87.53;96318.00;4844630;29;20194;-83
2022/10/19 12:07:21;;;;;;;10.18;8.45;;;;;;;15.73;86.18;96314.56;4825951;29;20620;-84